Terminal Aerodrome Forecast
Issued by NWS

Current Version | Previous Version | Text Only | Print | Product List | Glossary On
Versions: 1 2 3 4 5 6 7 8 9 10 11 12 13 14 15 16 17 18 19 20
000
FTUS44 KBMX 011738
TAFMGM
TAF
KMGM 011738Z 0118/0218 27005KT P6SM BKN040
     FM020000 14002KT P6SM SCT040 BKN100
     FM020900 00000KT 3SM BR BKN008
     FM021400 16008KT P6SM SCT025 BKN040=

USA.gov is the U.S. government's official web portal to all federal, state and local government web resources and services.